Terminal Aerodrome Forecast
Issued by NWS Upton, NY

Home | Current Version | Previous Version | Text Only | Print | Product List | Glossary On
Versions: 1 2 3 4 5 6 7 8 9 10 11 12 13 14 15 16 17 18 19 20 21 22 23 24 25 26 27
000
FTUS41 KOKX 201900 AAA
TAFJFK
TAF AMD
KJFK 201953Z 2020/2124 14015G19KT P6SM SCT250
     FM202200 14011KT P6SM FEW250
     FM210200 13007KT P6SM SKC
     FM210600 VRB04KT P6SM SKC
     FM211300 07007KT P6SM SKC
     FM211700 18009KT P6SM SKC=

USA.gov is the U.S. government's official web portal to all federal, state and local government web resources and services.